createdAt,value
2022-11-24T00:03:10.023Z,9.80
2022-11-24T00:08:17.805Z,9.80
2022-11-24T00:13:21.869Z,9.70
2022-11-24T00:18:25.692Z,9.70
2022-11-24T00:23:28.273Z,9.70
2022-11-24T00:28:33.336Z,9.70
2022-11-24T00:33:35.869Z,9.60
2022-11-24T00:38:38.490Z,9.50
2022-11-24T00:43:42.450Z,9.50
2022-11-24T00:48:45.521Z,9.40
2022-11-24T00:53:48.192Z,9.40
2022-11-24T00:58:52.636Z,9.30
2022-11-24T01:03:55.723Z,9.40
2022-11-24T01:08:58.494Z,9.40
2022-11-24T01:14:02.400Z,9.40
2022-11-24T01:19:04.948Z,9.40
2022-11-24T01:24:07.602Z,9.40
2022-11-24T01:29:12.656Z,9.30
2022-11-24T01:34:15.284Z,9.20
2022-11-24T01:39:17.968Z,9.20
2022-11-24T01:44:24.309Z,9.30
2022-11-24T01:49:39.927Z,9.20
2022-11-24T01:54:49.116Z,9.30
2022-11-24T01:59:59.339Z,9.40
2022-11-24T02:05:05.920Z,9.50
2022-11-24T02:10:13.111Z,9.50
2022-11-24T02:15:17.499Z,9.60
2022-11-24T02:20:20.050Z,9.60
2022-11-24T02:25:31.587Z,9.70
2022-11-24T02:30:36.184Z,9.70
2022-11-24T02:35:38.683Z,9.70
2022-11-24T02:40:44.508Z,9.70
2022-11-24T02:45:48.651Z,9.70
2022-11-24T02:50:51.108Z,9.60
2022-11-24T02:55:53.479Z,9.50
2022-11-24T03:00:57.539Z,9.40
2022-11-24T03:06:00.229Z,9.40
2022-11-24T03:11:02.860Z,9.30
2022-11-24T03:16:09.707Z,9.20
2022-11-24T03:21:12.144Z,9.10
2022-11-24T03:26:18.166Z,9.00
2022-11-24T03:31:22.703Z,8.90
2022-11-24T03:36:25.473Z,8.90
2022-11-24T03:41:27.938Z,8.80
2022-11-24T03:46:31.992Z,8.70
2022-11-24T03:51:34.527Z,8.70
2022-11-24T03:56:36.911Z,8.60
2022-11-24T04:01:40.883Z,8.50
2022-11-24T04:06:43.587Z,8.50
2022-11-24T04:11:46.000Z,8.40
2022-11-24T04:16:49.995Z,8.30
2022-11-24T04:21:52.264Z,8.30
2022-11-24T04:26:54.718Z,8.30
2022-11-24T04:31:58.613Z,8.30
2022-11-24T04:37:00.956Z,8.30
2022-11-24T04:42:03.170Z,8.40
2022-11-24T04:47:23.586Z,8.40
2022-11-24T04:52:26.574Z,8.40
2022-11-24T04:57:28.845Z,8.50
2022-11-24T05:02:32.544Z,8.50
2022-11-24T05:07:35.220Z,8.60
2022-11-24T05:12:37.669Z,8.60
2022-11-24T05:17:41.471Z,8.80
2022-11-24T05:22:43.844Z,8.80
2022-11-24T05:27:46.153Z,8.90
2022-11-24T05:32:49.925Z,8.90
2022-11-24T05:37:52.148Z,9.00
2022-11-24T05:42:54.530Z,9.00
2022-11-24T05:48:05.786Z,9.10
2022-11-24T05:53:10.978Z,9.10
2022-11-24T05:58:13.258Z,9.10
2022-11-24T06:03:17.197Z,9.00
2022-11-24T06:08:19.478Z,9.00
2022-11-24T06:13:21.720Z,8.90
2022-11-24T06:18:25.861Z,8.80
2022-11-24T06:23:31.158Z,8.80
2022-11-24T06:28:33.665Z,8.70
2022-11-24T06:33:38.928Z,8.70
2022-11-24T06:38:41.335Z,8.60
2022-11-24T06:43:43.634Z,8.60
2022-11-24T06:48:47.468Z,8.60
2022-11-24T06:53:49.829Z,8.60
2022-11-24T06:58:53.726Z,8.60
2022-11-24T07:03:58.347Z,8.60
2022-11-24T07:09:00.625Z,8.50
2022-11-24T07:14:03.836Z,8.50
2022-11-24T07:19:09.390Z,8.50
2022-11-24T07:24:12.114Z,8.50
2022-11-24T07:29:14.465Z,8.50
2022-11-24T07:34:18.424Z,8.50
2022-11-24T07:39:20.664Z,8.50
2022-11-24T07:44:22.927Z,8.60
2022-11-24T07:49:26.571Z,8.70
2022-11-24T07:54:28.784Z,8.90
2022-11-24T07:59:31.012Z,9.00
2022-11-24T08:04:37.140Z,9.30
2022-11-24T08:09:39.495Z,9.60
2022-11-24T08:14:41.694Z,9.90
2022-11-24T08:19:45.782Z,10.30
2022-11-24T08:24:48.149Z,10.60
2022-11-24T08:29:50.359Z,11.00
2022-11-24T08:34:59.614Z,11.40
2022-11-24T08:40:12.856Z,11.70
2022-11-24T08:45:21.084Z,12.00
2022-11-24T08:50:26.345Z,12.30
2022-11-24T08:55:28.955Z,12.60
2022-11-24T09:00:31.244Z,12.80
2022-11-24T09:05:52.186Z,13.00
2022-11-24T09:11:00.130Z,13.20
2022-11-24T09:16:06.022Z,13.40
2022-11-24T09:21:11.885Z,13.60
2022-11-24T09:26:17.566Z,13.80
2022-11-24T09:31:20.647Z,13.90
2022-11-24T09:36:25.154Z,14.00
2022-11-24T09:41:42.390Z,14.20
2022-11-24T09:46:51.791Z,14.50
2022-11-24T09:51:56.400Z,14.60
2022-11-24T09:57:01.425Z,14.80
2022-11-24T10:02:10.939Z,15.00
2022-11-24T10:07:22.536Z,15.10
2022-11-24T10:12:40.360Z,15.30
2022-11-24T10:18:04.268Z,15.50
2022-11-24T10:23:23.308Z,15.80
2022-11-24T10:28:30.924Z,16.00
2022-11-24T10:33:33.370Z,16.00
2022-11-24T10:38:42.866Z,16.20
2022-11-24T10:43:45.132Z,16.30
2022-11-24T10:48:52.096Z,16.40
2022-11-24T10:54:01.535Z,16.40
2022-11-24T10:59:26.319Z,16.30
2022-11-24T11:04:31.017Z,16.40
2022-11-24T11:09:35.036Z,16.50
2022-11-24T11:14:37.479Z,16.70
2022-11-24T11:19:50.037Z,16.90
2022-11-24T11:25:07.845Z,17.00
2022-11-24T11:35:46.256Z,17.40
2022-11-24T11:40:52.364Z,17.70
2022-11-24T11:46:02.117Z,17.90
2022-11-24T11:51:23.970Z,18.00
2022-11-24T11:56:30.894Z,18.10
2022-11-24T12:01:49.431Z,18.10
2022-11-24T12:07:06.535Z,18.00
2022-11-24T12:12:26.250Z,18.00
2022-11-24T12:17:33.773Z,18.00
2022-11-24T12:22:47.190Z,17.90
2022-11-24T12:28:03.535Z,17.60
2022-11-24T12:33:31.234Z,17.30
2022-11-24T12:38:45.409Z,17.10
2022-11-24T12:43:51.657Z,17.10
2022-11-24T12:49:04.573Z,17.20
2022-11-24T12:54:13.055Z,17.30
2022-11-24T12:59:27.930Z,17.40
2022-11-24T13:04:37.945Z,17.50
2022-11-24T13:10:34.895Z,17.60
2022-11-24T13:16:35.188Z,17.70
2022-11-24T13:21:48.094Z,17.80
2022-11-24T13:26:52.511Z,17.90
2022-11-24T13:32:16.970Z,17.90
2022-11-24T13:37:32.003Z,17.80
2022-11-24T13:43:20.288Z,17.70
2022-11-24T13:48:59.818Z,17.60
2022-11-24T13:54:02.419Z,17.60
2022-11-24T13:59:17.338Z,17.50
2022-11-24T14:04:31.899Z,17.30
2022-11-24T14:09:40.932Z,16.90
2022-11-24T14:14:44.753Z,16.70
2022-11-24T14:19:50.397Z,16.40
2022-11-24T14:24:55.143Z,16.10
2022-11-24T14:29:59.466Z,15.80
2022-11-24T14:35:15.729Z,15.40
2022-11-24T14:40:39.652Z,15.10
2022-11-24T14:45:49.947Z,14.70
2022-11-24T14:51:05.005Z,14.40
2022-11-24T14:56:09.927Z,14.10
2022-11-24T15:01:21.379Z,13.80
2022-11-24T15:06:25.231Z,13.50
2022-11-24T15:11:30.857Z,13.30
2022-11-24T15:16:33.157Z,13.00
2022-11-24T15:21:37.917Z,12.80
2022-11-24T15:26:42.132Z,12.60
2022-11-24T15:31:50.826Z,12.30
2022-11-24T15:36:56.287Z,12.20
2022-11-24T15:41:58.601Z,12.10
2022-11-24T15:47:01.179Z,11.80
2022-11-24T15:52:05.957Z,11.70
2022-11-24T15:57:10.753Z,11.50
2022-11-24T16:02:13.599Z,11.40
2022-11-24T16:07:17.671Z,11.30
2022-11-24T16:12:19.879Z,11.10
2022-11-24T16:17:22.087Z,11.00
2022-11-24T16:22:26.072Z,10.90
2022-11-24T16:27:28.457Z,10.80
2022-11-24T16:32:30.842Z,10.70
2022-11-24T16:37:34.947Z,10.60
2022-11-24T16:42:37.387Z,10.50
2022-11-24T16:47:40.482Z,10.40
2022-11-24T16:52:44.247Z,10.30
2022-11-24T16:57:46.661Z,10.20
2022-11-24T17:02:48.956Z,10.10
2022-11-24T17:07:52.792Z,10.00
2022-11-24T17:12:55.256Z,10.00
2022-11-24T17:18:22.989Z,9.90
2022-11-24T17:23:21.250Z,9.80
2022-11-24T17:28:23.436Z,9.80
2022-11-24T17:33:25.690Z,9.70
2022-11-24T17:38:29.878Z,9.70
2022-11-24T17:43:32.312Z,9.60
2022-11-24T17:48:35.891Z,9.60
2022-11-24T17:53:41.056Z,9.60
2022-11-24T17:58:43.791Z,9.60
2022-11-24T18:03:50.438Z,9.60
2022-11-24T18:08:58.465Z,9.60
2022-11-24T18:14:02.781Z,9.60
2022-11-24T18:19:09.886Z,9.60
2022-11-24T18:24:13.916Z,9.50
2022-11-24T18:29:16.312Z,9.50
2022-11-24T18:34:18.596Z,9.50
2022-11-24T18:39:22.306Z,9.50
2022-11-24T18:44:24.401Z,9.50
2022-11-24T18:49:26.583Z,9.50
2022-11-24T18:54:30.203Z,9.40
2022-11-24T18:59:32.729Z,9.40
2022-11-24T19:04:35.112Z,9.40
2022-11-24T19:09:39.008Z,9.30
2022-11-24T19:14:41.266Z,9.20
2022-11-24T19:19:43.424Z,9.20
2022-11-24T19:24:52.062Z,9.10
2022-11-24T19:29:54.524Z,9.10
2022-11-24T19:34:56.796Z,9.10
2022-11-24T19:40:02.266Z,9.00
2022-11-24T19:45:05.981Z,9.00
2022-11-24T19:50:10.484Z,8.90
2022-11-24T19:55:15.535Z,8.90
2022-11-24T20:00:18.564Z,8.90
2022-11-24T20:05:20.787Z,8.80
2022-11-24T20:10:24.789Z,8.80
2022-11-24T20:15:27.394Z,8.80
2022-11-24T20:20:29.659Z,8.80
2022-11-24T20:25:37.947Z,8.80
2022-11-24T20:30:40.159Z,8.80
2022-11-24T20:35:44.077Z,8.70
2022-11-24T20:40:48.318Z,8.70
2022-11-24T20:45:50.810Z,8.60
2022-11-24T20:50:53.025Z,8.60
2022-11-24T20:56:05.897Z,8.60
2022-11-24T21:01:16.033Z,8.60
2022-11-24T21:06:19.151Z,8.50
2022-11-24T21:11:23.840Z,8.50
2022-11-24T21:16:28.005Z,8.40
2022-11-24T21:21:33.063Z,8.40
2022-11-24T21:26:38.712Z,8.40
2022-11-24T21:31:41.258Z,8.30
2022-11-24T21:36:43.635Z,8.20
2022-11-24T21:41:47.342Z,8.20
2022-11-24T21:46:55.733Z,8.20
2022-11-24T21:51:58.640Z,8.20
2022-11-24T21:57:02.369Z,8.30
2022-11-24T22:02:13.034Z,8.40
2022-11-24T22:07:15.876Z,8.50
2022-11-24T22:12:19.763Z,8.70
2022-11-24T22:17:21.956Z,8.70
2022-11-24T22:22:24.149Z,8.70
2022-11-24T22:27:27.775Z,8.80
2022-11-24T22:32:30.057Z,8.80
2022-11-24T22:37:32.320Z,8.70
2022-11-24T22:42:36.061Z,8.70
2022-11-24T22:47:38.270Z,8.60
2022-11-24T22:52:40.479Z,8.50
2022-11-24T22:57:48.138Z,8.50
2022-11-24T23:02:51.095Z,8.40
2022-11-24T23:07:53.398Z,8.40
2022-11-24T23:12:57.174Z,8.40
2022-11-24T23:17:59.379Z,8.50
2022-11-24T23:23:01.540Z,8.50
2022-11-24T23:28:05.445Z,8.50
2022-11-24T23:33:07.741Z,8.50
2022-11-24T23:38:10.082Z,8.50
2022-11-24T23:43:13.819Z,8.50
2022-11-24T23:48:15.980Z,8.60
2022-11-24T23:53:18.395Z,8.50
2022-11-24T23:58:22.284Z,8.50
